Time;durP1;ratioP1;P1;durP2;ratioP2;P2;SDS_P1;SDS_P2;PMS_P1;PMS_P2;Temp;Humidity;BMP_temperature;BMP_pressure;BME280_temperature;BME280_humidity;BME280_pressure;Samples;Min_cycle;Max_cycle;Signal;HPM_P1;HPM_P2
2023/11/26 00:00:39;;;;;;;4.97;4.20;;;;;;;;;;12795776;22;20015;-68
2023/11/26 00:05:36;;;;;;;6.88;4.70;;;;;;;;;;12823473;22;20019;-68
2023/11/26 00:10:32;;;;;;;5.45;4.18;;;;;;;;;;12822982;22;20080;-67
2023/11/26 00:15:28;;;;;;;4.30;3.72;;;;;;;;;;12824438;22;20027;-67
2023/11/26 00:20:25;;;;;;;7.05;3.83;;;;;;;;;;12823698;22;20518;-67
2023/11/26 00:25:21;;;;;;;4.38;3.60;;;;;;;;;;12822737;22;20699;-67
2023/11/26 00:30:17;;;;;;;4.93;4.00;;;;;;;;;;12823240;22;20023;-67
2023/11/26 00:35:14;;;;;;;7.38;4.00;;;;;;;;;;12823590;22;20020;-68
2023/11/26 00:40:12;;;;;;;6.03;4.15;;;;;;;;;;12789123;22;20046;-68
2023/11/26 00:45:08;;;;;;;6.05;4.05;;;;;;;;;;12823003;22;20090;-67
2023/11/26 00:50:05;;;;;;;7.35;4.18;;;;;;;;;;12817513;22;20019;-67
2023/11/26 00:55:01;;;;;;;5.38;3.80;;;;;;;;;;12822113;22;20023;-68
2023/11/26 00:59:58;;;;;;;4.70;3.83;;;;;;;;;;12822111;22;20111;-67
2023/11/26 01:04:54;;;;;;;4.57;3.83;;;;;;;;;;12822308;22;20023;-67
2023/11/26 01:09:51;;;;;;;4.05;3.65;;;;;;;;;;12819630;22;20380;-68
2023/11/26 01:14:48;;;;;;;6.07;3.92;;;;;;;;;;12822186;22;20019;-67
2023/11/26 01:19:44;;;;;;;6.55;4.00;;;;;;;;;;12818696;22;20077;-68
2023/11/26 01:24:41;;;;;;;9.18;3.65;;;;;;;;;;12820954;22;20065;-67
2023/11/26 01:29:37;;;;;;;4.63;4.10;;;;;;;;;;12819974;22;20686;-68
2023/11/26 01:34:34;;;;;;;7.60;4.45;;;;;;;;;;12820558;22;20100;-67
2023/11/26 01:39:30;;;;;;;5.20;4.18;;;;;;;;;;12793287;22;20030;-68
2023/11/26 01:44:26;;;;;;;6.63;4.03;;;;;;;;;;12814998;22;20027;-68
2023/11/26 01:49:24;;;;;;;6.47;4.20;;;;;;;;;;12814938;22;20368;-67
2023/11/26 01:54:20;;;;;;;5.95;3.95;;;;;;;;;;12821288;22;20027;-67
2023/11/26 01:59:17;;;;;;;4.20;3.63;;;;;;;;;;12820653;22;20034;-67
2023/11/26 02:04:13;;;;;;;7.00;4.00;;;;;;;;;;12816791;22;20077;-67
2023/11/26 02:09:13;;;;;;;5.43;4.18;;;;;;;;;;12820332;22;20461;-67
2023/11/26 02:14:09;;;;;;;6.53;4.63;;;;;;;;;;12820478;22;20364;-67
2023/11/26 02:19:10;;;;;;;5.75;4.28;;;;;;;;;;12820656;22;20406;-67
2023/11/26 02:24:09;;;;;;;5.37;4.37;;;;;;;;;;12820436;22;20020;-68
2023/11/26 02:29:08;;;;;;;4.50;3.90;;;;;;;;;;12821048;22;20415;-68
2023/11/26 02:34:04;;;;;;;6.43;4.00;;;;;;;;;;12820638;22;20348;-68
2023/11/26 02:39:00;;;;;;;6.00;4.15;;;;;;;;;;12820856;22;20027;-67
2023/11/26 02:43:57;;;;;;;8.20;4.30;;;;;;;;;;12818767;22;20026;-68
2023/11/26 02:48:53;;;;;;;6.78;4.10;;;;;;;;;;12808744;22;20101;-67
2023/11/26 02:53:49;;;;;;;6.95;3.90;;;;;;;;;;12820093;22;20027;-67
2023/11/26 02:58:46;;;;;;;3.85;3.45;;;;;;;;;;12820509;22;20027;-67
2023/11/26 03:03:44;;;;;;;7.13;3.92;;;;;;;;;;12816975;22;20081;-68
2023/11/26 03:08:43;;;;;;;4.15;3.75;;;;;;;;;;12820188;22;20027;-68
2023/11/26 03:13:39;;;;;;;6.05;4.25;;;;;;;;;;12820053;22;20120;-68
2023/11/26 03:18:35;;;;;;;5.18;3.83;;;;;;;;;;12822713;22;20081;-67
2023/11/26 03:23:32;;;;;;;4.97;3.80;;;;;;;;;;12822819;22;20027;-68
2023/11/26 03:28:29;;;;;;;4.72;3.80;;;;;;;;;;12823905;22;20524;-67
2023/11/26 03:33:26;;;;;;;5.53;3.75;;;;;;;;;;12823504;22;20027;-67
2023/11/26 03:38:23;;;;;;;3.80;3.40;;;;;;;;;;12823777;22;20023;-66
2023/11/26 03:43:20;;;;;;;4.57;3.90;;;;;;;;;;12822862;22;20023;-67
2023/11/26 03:48:16;;;;;;;5.05;4.15;;;;;;;;;;12817801;22;20346;-66
2023/11/26 03:53:14;;;;;;;4.40;3.80;;;;;;;;;;12817878;22;20106;-68
2023/11/26 03:58:11;;;;;;;4.20;3.60;;;;;;;;;;12823198;22;20049;-68
2023/11/26 04:03:07;;;;;;;4.57;3.85;;;;;;;;;;12820152;22;20029;-67
2023/11/26 04:08:04;;;;;;;4.00;3.55;;;;;;;;;;12822831;22;20027;-67
2023/11/26 04:13:00;;;;;;;5.55;3.65;;;;;;;;;;12795419;22;20473;-67
2023/11/26 04:17:57;;;;;;;5.90;3.83;;;;;;;;;;12823188;22;20097;-68
2023/11/26 04:22:53;;;;;;;6.03;3.85;;;;;;;;;;12823029;22;20522;-67
2023/11/26 04:27:50;;;;;;;4.47;3.55;;;;;;;;;;12821226;22;20023;-67
2023/11/26 04:32:47;;;;;;;7.43;3.55;;;;;;;;;;12822270;22;20023;-67
2023/11/26 04:37:43;;;;;;;4.53;3.65;;;;;;;;;;12820413;22;20031;-66
2023/11/26 04:42:40;;;;;;;6.28;3.90;;;;;;;;;;12819085;22;20031;-67
2023/11/26 04:47:36;;;;;;;4.43;3.47;;;;;;;;;;12820712;22;20027;-67
2023/11/26 04:52:34;;;;;;;6.28;3.63;;;;;;;;;;12810415;22;20031;-67
2023/11/26 04:57:30;;;;;;;4.13;3.47;;;;;;;;;;12821404;22;20019;-67
2023/11/26 05:02:31;;;;;;;4.20;3.80;;;;;;;;;;12821079;22;20092;-67
2023/11/26 05:07:28;;;;;;;5.27;3.57;;;;;;;;;;12821329;22;20027;-66
2023/11/26 05:12:24;;;;;;;4.30;3.78;;;;;;;;;;12821324;22;20027;-67
2023/11/26 05:17:21;;;;;;;4.00;3.60;;;;;;;;;;12821200;22;20027;-67
2023/11/26 05:22:18;;;;;;;4.63;3.90;;;;;;;;;;12821338;22;20031;-67
2023/11/26 05:27:14;;;;;;;4.55;3.42;;;;;;;;;;12820927;22;20023;-67
2023/11/26 05:32:10;;;;;;;4.65;3.20;;;;;;;;;;12827946;22;20086;-67
2023/11/26 05:37:07;;;;;;;6.38;3.95;;;;;;;;;;12821834;22;20352;-67
2023/11/26 05:42:03;;;;;;;3.92;3.30;;;;;;;;;;12819498;22;20034;-67
2023/11/26 05:46:59;;;;;;;7.35;3.50;;;;;;;;;;12826242;22;20443;-66
2023/11/26 05:51:57;;;;;;;3.92;3.28;;;;;;;;;;12810885;22;20038;-67
2023/11/26 05:56:53;;;;;;;6.13;3.67;;;;;;;;;;12820730;22;20023;-68
2023/11/26 06:01:50;;;;;;;3.92;3.53;;;;;;;;;;12820489;22;20081;-67
2023/11/26 06:06:46;;;;;;;4.35;3.78;;;;;;;;;;12821516;22;20031;-67
2023/11/26 06:11:43;;;;;;;4.10;3.70;;;;;;;;;;12821240;22;20029;-67
2023/11/26 06:16:43;;;;;;;4.63;3.38;;;;;;;;;;12820985;22;20029;-67
2023/11/26 06:21:39;;;;;;;3.88;3.47;;;;;;;;;;12819130;22;20576;-66
2023/11/26 06:26:37;;;;;;;4.88;3.83;;;;;;;;;;12807196;22;20019;-67
2023/11/26 06:31:34;;;;;;;4.43;3.97;;;;;;;;;;12820983;22;20493;-67
2023/11/26 06:36:30;;;;;;;3.60;3.30;;;;;;;;;;12819864;22;20106;-67
2023/11/26 06:41:28;;;;;;;5.32;3.90;;;;;;;;;;12820961;22;20052;-67
2023/11/26 06:46:26;;;;;;;4.80;3.80;;;;;;;;;;12820471;22;20034;-68
2023/11/26 06:51:23;;;;;;;4.45;3.22;;;;;;;;;;12816681;22;20360;-68
2023/11/26 06:56:19;;;;;;;4.90;3.42;;;;;;;;;;12818698;22;20102;-67
2023/11/26 07:01:16;;;;;;;6.80;4.13;;;;;;;;;;12823261;22;20022;-67
2023/11/26 07:06:12;;;;;;;9.13;3.55;;;;;;;;;;12823392;22;20350;-67
2023/11/26 07:11:29;;;;;;;7.45;3.58;;;;;;;;;;12821820;22;20098;-68
2023/11/26 07:16:26;;;;;;;3.95;3.60;;;;;;;;;;12823728;22;20026;-67
2023/11/26 07:21:23;;;;;;;4.93;3.60;;;;;;;;;;12822391;22;20545;-67
2023/11/26 07:26:21;;;;;;;4.55;3.33;;;;;;;;;;12822781;22;20049;-68
2023/11/26 07:31:19;;;;;;;5.38;3.70;;;;;;;;;;12822619;22;20081;-67
2023/11/26 07:36:19;;;;;;;7.57;4.00;;;;;;;;;;12823571;22;20077;-67
2023/11/26 07:41:15;;;;;;;4.30;3.90;;;;;;;;;;12822514;22;20472;-71
2023/11/26 07:46:15;;;;;;;4.75;3.97;;;;;;;;;;12820171;22;20053;-67
2023/11/26 07:51:12;;;;;;;4.55;3.75;;;;;;;;;;12821948;22;20030;-67
2023/11/26 07:56:10;;;;;;;4.97;4.00;;;;;;;;;;12810021;22;20027;-67
2023/11/26 08:01:07;;;;;;;4.47;4.00;;;;;;;;;;12821448;22;20031;-66
2023/11/26 08:06:03;;;;;;;4.78;3.97;;;;;;;;;;12821519;22;20023;-68
2023/11/26 08:11:00;;;;;;;5.40;4.57;;;;;;;;;;12821971;22;20108;-68
2023/11/26 08:15:57;;;;;;;4.88;4.38;;;;;;;;;;12821682;22;20019;-67
2023/11/26 08:20:54;;;;;;;5.20;4.70;;;;;;;;;;12821970;22;20407;-67
2023/11/26 08:25:50;;;;;;;4.60;4.15;;;;;;;;;;12819667;22;20029;-67
2023/11/26 08:30:58;;;;;;;7.45;4.38;;;;;;;;;;12821859;22;20077;-67
2023/11/26 08:35:59;;;;;;;5.30;4.50;;;;;;;;;;12820555;22;20023;-68
2023/11/26 08:40:56;;;;;;;6.23;4.50;;;;;;;;;;12822536;22;20033;-67
2023/11/26 08:45:53;;;;;;;10.88;5.10;;;;;;;;;;12819653;22;20084;-69
2023/11/26 08:50:49;;;;;;;5.35;4.25;;;;;;;;;;12818780;22;20088;-69
2023/11/26 08:55:46;;;;;;;6.22;4.50;;;;;;;;;;12810996;22;20022;-71
2023/11/26 09:00:43;;;;;;;6.65;4.38;;;;;;;;;;12797523;22;20023;-70
2023/11/26 09:05:39;;;;;;;5.03;4.18;;;;;;;;;;12819329;22;20024;-71
2023/11/26 09:10:36;;;;;;;8.48;4.03;;;;;;;;;;12818988;22;20019;-69
2023/11/26 09:15:36;;;;;;;9.40;4.72;;;;;;;;;;12792210;22;20019;-71
2023/11/26 09:20:33;;;;;;;7.18;4.47;;;;;;;;;;12823906;22;20098;-69
2023/11/26 09:25:30;;;;;;;4.60;4.20;;;;;;;;;;12820052;22;20019;-70
2023/11/26 09:30:26;;;;;;;4.70;4.25;;;;;;;;;;12823335;22;20042;-70
2023/11/26 09:35:22;;;;;;;5.45;4.00;;;;;;;;;;12819669;22;20088;-70
2023/11/26 09:40:19;;;;;;;6.28;4.90;;;;;;;;;;12820089;22;20016;-70
2023/11/26 09:45:15;;;;;;;4.97;4.47;;;;;;;;;;12813794;22;20433;-70
2023/11/26 09:50:12;;;;;;;5.40;4.88;;;;;;;;;;12809706;22;20186;-73
2023/11/26 09:55:09;;;;;;;5.20;4.35;;;;;;;;;;12806195;22;20030;-72
2023/11/26 10:00:07;;;;;;;4.20;3.80;;;;;;;;;;12819149;22;20094;-72
2023/11/26 10:05:04;;;;;;;4.47;3.90;;;;;;;;;;12818688;22;20023;-72
2023/11/26 10:10:03;;;;;;;4.75;3.97;;;;;;;;;;12791985;22;20084;-72
2023/11/26 10:15:05;;;;;;;4.93;4.25;;;;;;;;;;12806078;22;20500;-73
2023/11/26 10:20:17;;;;;;;4.17;3.77;;;;;;;;;;12808299;22;20101;-72
2023/11/26 10:25:14;;;;;;;5.35;4.32;;;;;;;;;;12816109;22;20433;-72
2023/11/26 10:30:22;;;;;;;4.80;4.28;;;;;;;;;;12796738;22;20019;-72
2023/11/26 10:35:18;;;;;;;7.25;4.20;;;;;;;;;;12826007;22;20025;-72
2023/11/26 10:40:15;;;;;;;5.05;4.55;;;;;;;;;;12810837;22;20029;-72
2023/11/26 10:45:11;;;;;;;10.98;4.70;;;;;;;;;;12826057;22;20077;-72
2023/11/26 10:50:09;;;;;;;5.47;4.18;;;;;;;;;;12825083;22;20126;-72
2023/11/26 10:55:08;;;;;;;8.40;4.80;;;;;;;;;;12811590;22;20339;-72
2023/11/26 11:00:09;;;;;;;5.97;4.75;;;;;;;;;;12797043;22;20020;-72
2023/11/26 11:05:07;;;;;;;5.82;5.22;;;;;;;;;;12799990;22;20345;-72
2023/11/26 11:10:13;;;;;;;5.13;4.30;;;;;;;;;;12824238;22;20019;-73
2023/11/26 11:15:10;;;;;;;4.63;4.20;;;;;;;;;;12825795;22;20061;-73
2023/11/26 11:20:07;;;;;;;5.90;5.07;;;;;;;;;;12824625;22;20102;-73
2023/11/26 11:25:06;;;;;;;5.18;4.65;;;;;;;;;;12827060;22;20022;-74
2023/11/26 11:30:03;;;;;;;9.13;4.70;;;;;;;;;;12824281;22;20015;-73
2023/11/26 11:35:21;;;;;;;5.22;4.72;;;;;;;;;;12828139;22;20023;-71
2023/11/26 11:40:37;;;;;;;9.00;5.10;;;;;;;;;;12821584;22;20023;-72
2023/11/26 11:45:34;;;;;;;5.63;4.55;;;;;;;;;;12820905;22;20023;-72
2023/11/26 11:50:30;;;;;;;6.78;4.53;;;;;;;;;;12822659;22;20015;-71
2023/11/26 11:55:26;;;;;;;6.43;4.95;;;;;;;;;;12814631;22;20018;-73
2023/11/26 12:00:23;;;;;;;4.97;4.47;;;;;;;;;;12818951;22;20081;-72
2023/11/26 12:05:24;;;;;;;9.23;4.68;;;;;;;;;;12795683;22;20019;-72
2023/11/26 12:10:25;;;;;;;4.43;4.03;;;;;;;;;;12823311;22;20023;-73
2023/11/26 12:15:21;;;;;;;5.25;3.83;;;;;;;;;;12822620;22;20027;-73
2023/11/26 12:20:18;;;;;;;4.40;3.90;;;;;;;;;;12821852;22;20016;-73
2023/11/26 12:25:21;;;;;;;4.72;3.70;;;;;;;;;;12820068;22;20015;-73
2023/11/26 12:30:18;;;;;;;4.70;3.80;;;;;;;;;;12822972;22;20019;-73
2023/11/26 12:35:15;;;;;;;5.30;3.90;;;;;;;;;;12822019;22;20026;-73
2023/11/26 12:40:12;;;;;;;10.07;5.22;;;;;;;;;;12821824;22;20090;-73
2023/11/26 12:45:10;;;;;;;8.88;6.60;;;;;;;;;;12821215;22;20019;-71
2023/11/26 12:50:07;;;;;;;10.25;6.43;;;;;;;;;;12821995;22;20026;-72
2023/11/26 12:55:04;;;;;;;7.90;6.60;;;;;;;;;;12816012;22;20073;-72
2023/11/26 13:00:02;;;;;;;8.23;6.60;;;;;;;;;;12815798;22;20027;-73
2023/11/26 13:04:59;;;;;;;8.45;6.95;;;;;;;;;;12782118;22;20015;-72
2023/11/26 13:09:59;;;;;;;11.63;7.13;;;;;;;;;;12816523;22;20027;-72
2023/11/26 13:14:56;;;;;;;13.32;7.53;;;;;;;;;;12817720;22;20029;-72
2023/11/26 13:19:52;;;;;;;10.07;6.65;;;;;;;;;;12821109;22;20023;-73
2023/11/26 13:24:49;;;;;;;9.80;7.80;;;;;;;;;;12816730;22;20641;-74
2023/11/26 13:29:46;;;;;;;12.80;7.68;;;;;;;;;;12807579;22;20102;-72
2023/11/26 13:34:43;;;;;;;11.27;8.43;;;;;;;;;;12785682;22;20049;-73
2023/11/26 13:39:40;;;;;;;10.35;7.28;;;;;;;;;;12819881;22;20034;-72
2023/11/26 13:44:36;;;;;;;10.85;8.68;;;;;;;;;;12821208;22;20025;-72
2023/11/26 13:49:32;;;;;;;12.05;8.60;;;;;;;;;;12819374;22;20026;-70
2023/11/26 13:54:29;;;;;;;11.45;8.88;;;;;;;;;;12817063;22;20019;-73
2023/11/26 13:59:26;;;;;;;11.07;8.52;;;;;;;;;;12800963;22;20081;-73
2023/11/26 14:04:22;;;;;;;11.43;8.75;;;;;;;;;;12812225;22;20488;-72
2023/11/26 14:09:19;;;;;;;10.35;8.75;;;;;;;;;;12786748;22;20030;-73
2023/11/26 14:14:16;;;;;;;10.30;8.50;;;;;;;;;;12818187;22;20027;-73
2023/11/26 14:19:12;;;;;;;10.45;8.43;;;;;;;;;;12821025;22;20081;-71
2023/11/26 14:24:09;;;;;;;11.13;7.95;;;;;;;;;;12819539;22;20465;-72
2023/11/26 14:29:05;;;;;;;14.15;8.32;;;;;;;;;;12820627;22;20015;-71
2023/11/26 14:34:03;;;;;;;11.05;7.50;;;;;;;;;;12811406;22;20027;-73
2023/11/26 14:39:00;;;;;;;9.38;7.40;;;;;;;;;;12810407;22;20027;-72
2023/11/26 14:43:56;;;;;;;12.38;7.60;;;;;;;;;;12809026;22;20019;-72
2023/11/26 14:48:53;;;;;;;7.90;7.10;;;;;;;;;;12811592;22;20078;-74
2023/11/26 14:53:50;;;;;;;9.23;7.03;;;;;;;;;;12813826;22;20364;-72
2023/11/26 14:58:46;;;;;;;8.90;7.43;;;;;;;;;;12812456;22;20028;-72
2023/11/26 15:03:46;;;;;;;11.90;7.43;;;;;;;;;;12820357;22;20059;-73
2023/11/26 15:08:44;;;;;;;13.02;7.53;;;;;;;;;;12820788;22;20025;-72
2023/11/26 15:13:40;;;;;;;8.68;7.80;;;;;;;;;;12822594;22;20027;-72
2023/11/26 15:18:37;;;;;;;10.52;8.88;;;;;;;;;;12820074;22;20031;-72
2023/11/26 15:23:34;;;;;;;12.25;9.55;;;;;;;;;;12821470;22;20023;-72
2023/11/26 15:28:31;;;;;;;13.65;10.00;;;;;;;;;;12822814;22;20015;-72
2023/11/26 15:33:28;;;;;;;13.82;10.50;;;;;;;;;;12824266;22;20491;-72
2023/11/26 15:38:25;;;;;;;13.02;9.27;;;;;;;;;;12824313;22;20050;-73
2023/11/26 15:43:22;;;;;;;12.40;8.48;;;;;;;;;;12823696;22;20027;-74
2023/11/26 15:48:21;;;;;;;10.52;8.18;;;;;;;;;;12823851;22;20031;-74
2023/11/26 15:53:18;;;;;;;9.48;8.10;;;;;;;;;;12823294;22;20077;-72
2023/11/26 15:58:14;;;;;;;9.10;8.05;;;;;;;;;;12824734;22;20023;-73
2023/11/26 16:03:10;;;;;;;8.55;7.70;;;;;;;;;;12817310;22;20522;-73
2023/11/26 16:08:08;;;;;;;13.68;7.97;;;;;;;;;;12797029;22;20015;-73
2023/11/26 16:13:04;;;;;;;11.30;7.30;;;;;;;;;;12823090;22;20077;-73
2023/11/26 16:18:01;;;;;;;10.55;7.47;;;;;;;;;;12822939;22;20062;-74
2023/11/26 16:22:57;;;;;;;12.25;7.60;;;;;;;;;;12821450;22;20054;-72
2023/11/26 16:27:56;;;;;;;10.27;8.50;;;;;;;;;;12822862;22;20048;-72
2023/11/26 16:32:53;;;;;;;10.20;7.57;;;;;;;;;;12822857;22;20469;-72
2023/11/26 16:37:49;;;;;;;13.90;7.57;;;;;;;;;;12823716;22;20057;-72
2023/11/26 16:42:45;;;;;;;10.55;7.43;;;;;;;;;;12821326;22;20025;-73
2023/11/26 16:47:42;;;;;;;8.75;7.30;;;;;;;;;;12822860;22;20073;-74
2023/11/26 16:52:39;;;;;;;9.45;7.63;;;;;;;;;;12821994;22;20062;-72
2023/11/26 16:57:35;;;;;;;8.73;7.35;;;;;;;;;;12822630;22;20023;-72
2023/11/26 17:02:32;;;;;;;12.10;7.40;;;;;;;;;;12816241;22;20408;-73
2023/11/26 17:07:28;;;;;;;10.57;8.05;;;;;;;;;;12822401;22;20467;-72
2023/11/26 17:12:24;;;;;;;11.45;8.07;;;;;;;;;;12821902;22;20029;-73
2023/11/26 17:17:23;;;;;;;13.30;7.85;;;;;;;;;;12821733;22;20077;-73
2023/11/26 17:22:19;;;;;;;11.10;7.90;;;;;;;;;;12821190;22;20054;-72
2023/11/26 17:27:16;;;;;;;9.88;7.70;;;;;;;;;;12794465;22;20020;-73
2023/11/26 17:32:12;;;;;;;10.95;7.75;;;;;;;;;;12822389;22;20035;-73
2023/11/26 17:37:08;;;;;;;12.10;8.90;;;;;;;;;;12820953;22;20034;-73
2023/11/26 17:42:05;;;;;;;11.35;9.15;;;;;;;;;;12821781;22;20095;-72
2023/11/26 17:47:02;;;;;;;14.60;10.07;;;;;;;;;;12795094;22;20441;-74
2023/11/26 17:51:59;;;;;;;13.75;10.10;;;;;;;;;;12821471;22;20027;-72
2023/11/26 17:56:56;;;;;;;11.43;8.73;;;;;;;;;;12821275;22;20439;-75
2023/11/26 18:01:55;;;;;;;14.05;8.93;;;;;;;;;;12814378;22;20061;-72
2023/11/26 18:06:51;;;;;;;10.57;9.30;;;;;;;;;;12794118;22;20023;-73
2023/11/26 18:11:49;;;;;;;16.77;10.43;;;;;;;;;;12821495;22;20039;-72
2023/11/26 18:16:46;;;;;;;15.00;10.85;;;;;;;;;;12845232;22;20027;-73
2023/11/26 18:21:47;;;;;;;22.00;12.20;;;;;;;;;;12820532;22;20027;-73
2023/11/26 18:26:47;;;;;;;15.13;10.48;;;;;;;;;;12821026;22;20033;-73
2023/11/26 18:31:43;;;;;;;16.08;10.30;;;;;;;;;;12821012;22;20070;-74
2023/11/26 18:36:40;;;;;;;13.32;9.55;;;;;;;;;;12820597;22;20111;-73
2023/11/26 18:41:36;;;;;;;13.55;9.88;;;;;;;;;;12820904;22;20487;-73
2023/11/26 18:46:34;;;;;;;14.60;10.38;;;;;;;;;;12822022;22;20035;-72
2023/11/26 18:51:30;;;;;;;11.93;9.50;;;;;;;;;;12823539;22;20069;-73
2023/11/26 18:56:28;;;;;;;12.73;9.27;;;;;;;;;;12824568;22;20089;-73
2023/11/26 19:01:24;;;;;;;11.70;9.25;;;;;;;;;;12819569;22;20731;-74
2023/11/26 19:06:20;;;;;;;12.20;9.32;;;;;;;;;;12824578;22;20094;-74
2023/11/26 19:11:18;;;;;;;13.35;10.02;;;;;;;;;;12824221;22;20496;-73
2023/11/26 19:16:15;;;;;;;15.00;9.80;;;;;;;;;;12825189;22;20477;-72
2023/11/26 19:21:16;;;;;;;13.88;9.70;;;;;;;;;;12798574;22;20027;-74
2023/11/26 19:26:15;;;;;;;16.13;11.88;;;;;;;;;;12824296;22;20093;-73
2023/11/26 19:31:15;;;;;;;13.82;10.48;;;;;;;;;;12824271;22;20023;-73
2023/11/26 19:36:22;;;;;;;15.00;11.05;;;;;;;;;;12824829;22;20019;-72
2023/11/26 19:41:18;;;;;;;14.88;11.20;;;;;;;;;;12796621;22;20023;-73
2023/11/26 19:46:15;;;;;;;12.23;10.30;;;;;;;;;;12824371;22;20585;-73
2023/11/26 19:51:13;;;;;;;22.17;10.75;;;;;;;;;;12823709;22;20030;-74
2023/11/26 19:56:14;;;;;;;25.88;13.40;;;;;;;;;;12846114;22;20029;-73
2023/11/26 20:01:11;;;;;;;18.27;12.75;;;;;;;;;;12822722;22;20477;-73
2023/11/26 20:06:08;;;;;;;15.15;11.40;;;;;;;;;;12809213;22;20077;-74
2023/11/26 20:11:07;;;;;;;23.05;13.35;;;;;;;;;;12819288;22;20019;-73
2023/11/26 20:16:04;;;;;;;20.90;14.15;;;;;;;;;;12844234;22;20066;-68
2023/11/26 20:21:04;;;;;;;22.40;14.40;;;;;;;;;;12823280;22;20368;-72
2023/11/26 20:26:01;;;;;;;21.35;14.27;;;;;;;;;;12820467;22;20544;-68
2023/11/26 20:30:57;;;;;;;22.15;15.50;;;;;;;;;;12823185;22;20311;-67
2023/11/26 20:36:05;;;;;;;23.30;15.00;;;;;;;;;;12823032;22;20027;-67
2023/11/26 20:41:03;;;;;;;20.52;15.02;;;;;;;;;;12819347;22;20062;-67
2023/11/26 20:46:00;;;;;;;18.27;13.88;;;;;;;;;;12821617;22;20031;-67
2023/11/26 20:50:56;;;;;;;21.58;15.38;;;;;;;;;;12823260;22;20410;-67
2023/11/26 20:55:53;;;;;;;18.92;15.32;;;;;;;;;;12822202;22;20027;-68
2023/11/26 21:00:49;;;;;;;26.35;17.42;;;;;;;;;;12822144;22;20042;-67
2023/11/26 21:05:46;;;;;;;24.90;15.35;;;;;;;;;;12816786;22;20090;-67
2023/11/26 21:10:42;;;;;;;22.92;15.27;;;;;;;;;;12823084;22;20341;-67
2023/11/26 21:15:38;;;;;;;23.65;15.52;;;;;;;;;;12844685;22;20099;-68
2023/11/26 21:20:35;;;;;;;24.50;16.17;;;;;;;;;;12823086;22;20360;-68
2023/11/26 21:25:31;;;;;;;26.05;16.38;;;;;;;;;;12822384;22;20097;-67
2023/11/26 21:30:28;;;;;;;31.17;16.90;;;;;;;;;;12823379;22;20022;-67
2023/11/26 21:35:27;;;;;;;24.42;14.98;;;;;;;;;;12822370;22;20369;-67
2023/11/26 21:40:24;;;;;;;25.27;16.70;;;;;;;;;;12821838;22;20049;-67
2023/11/26 21:45:20;;;;;;;27.50;16.20;;;;;;;;;;12821972;22;20081;-67
2023/11/26 21:50:16;;;;;;;26.58;17.05;;;;;;;;;;12822208;22;20074;-67
2023/11/26 21:55:13;;;;;;;28.58;17.00;;;;;;;;;;12821440;22;20030;-67
2023/11/26 22:00:09;;;;;;;33.03;17.95;;;;;;;;;;12820392;22;20046;-67
2023/11/26 22:05:06;;;;;;;30.52;16.65;;;;;;;;;;12816599;22;20349;-67
2023/11/26 22:10:02;;;;;;;28.60;17.30;;;;;;;;;;12821571;22;20030;-68
2023/11/26 22:14:59;;;;;;;24.27;16.33;;;;;;;;;;12817043;22;20077;-68
2023/11/26 22:19:55;;;;;;;32.80;17.45;;;;;;;;;;12820806;22;20031;-67
2023/11/26 22:24:55;;;;;;;34.15;17.38;;;;;;;;;;12820423;22;20027;-68
2023/11/26 22:29:52;;;;;;;32.20;18.50;;;;;;;;;;12819662;22;20077;-68
2023/11/26 22:34:49;;;;;;;40.95;18.63;;;;;;;;;;12820314;22;20023;-70
2023/11/26 22:39:45;;;;;;;35.85;18.45;;;;;;;;;;12793740;22;20654;-67
2023/11/26 22:44:41;;;;;;;32.95;18.13;;;;;;;;;;12793146;22;20023;-67
2023/11/26 22:49:38;;;;;;;34.30;17.17;;;;;;;;;;12820891;22;20027;-68
2023/11/26 22:54:34;;;;;;;32.92;16.80;;;;;;;;;;12820935;22;20556;-67
2023/11/26 22:59:30;;;;;;;34.78;16.20;;;;;;;;;;12820024;22;20027;-67
2023/11/26 23:04:27;;;;;;;31.98;18.38;;;;;;;;;;12814673;22;20023;-68
2023/11/26 23:09:23;;;;;;;28.33;16.75;;;;;;;;;;12820791;22;20098;-68
2023/11/26 23:14:21;;;;;;;32.97;17.45;;;;;;;;;;12819606;22;20085;-68
2023/11/26 23:19:17;;;;;;;31.80;17.38;;;;;;;;;;12815525;22;20055;-67
2023/11/26 23:24:14;;;;;;;29.85;18.25;;;;;;;;;;12820728;22;20346;-66
2023/11/26 23:29:10;;;;;;;24.38;16.83;;;;;;;;;;12819957;22;20027;-67
2023/11/26 23:34:06;;;;;;;27.90;17.88;;;;;;;;;;12821646;22;20073;-68
2023/11/26 23:39:03;;;;;;;29.77;17.38;;;;;;;;;;12823771;22;20027;-68
2023/11/26 23:43:59;;;;;;;31.17;18.08;;;;;;;;;;12823487;22;20485;-67
2023/11/26 23:48:55;;;;;;;29.77;18.00;;;;;;;;;;12824009;22;20023;-66
2023/11/26 23:53:51;;;;;;;29.33;16.58;;;;;;;;;;12822926;22;20029;-67
2023/11/26 23:58:48;;;;;;;26.92;16.80;;;;;;;;;;12847217;22;20085;-67
